createdAt,value
2019-01-31T00:00:46.139Z,26.13
2019-01-31T00:03:49.938Z,24.43
2019-01-31T00:06:47.452Z,24.13
2019-01-31T00:09:36.388Z,26.03
2019-01-31T00:12:33.231Z,24.63
2019-01-31T00:15:07.293Z,24.70
2019-01-31T00:17:44.321Z,27.37
2019-01-31T00:20:30.219Z,24.63
2019-01-31T00:23:27.768Z,24.00
2019-01-31T00:26:32.082Z,26.43
2019-01-31T00:29:17.276Z,24.80
2019-01-31T00:32:09.023Z,23.50
2019-01-31T00:34:48.855Z,24.37
2019-01-31T00:37:29.461Z,23.47
2019-01-31T00:40:36.765Z,24.63
2019-01-31T00:43:31.771Z,22.93
2019-01-31T00:46:08.936Z,25.13
2019-01-31T00:48:55.099Z,24.10
2019-01-31T00:51:55.962Z,23.67
2019-01-31T00:54:53.839Z,24.00
2019-01-31T00:57:27.829Z,23.30
2019-01-31T01:00:16.661Z,23.63
2019-01-31T01:03:07.148Z,23.30
2019-01-31T01:06:02.181Z,23.77
2019-01-31T01:08:44.766Z,24.83
2019-01-31T01:11:42.570Z,24.40
2019-01-31T01:14:38.237Z,21.63
2019-01-31T01:17:15.065Z,22.53
2019-01-31T01:19:59.640Z,24.43
2019-01-31T01:22:52.680Z,23.43
2019-01-31T01:25:53.517Z,25.17
2019-01-31T01:28:44.837Z,22.33
2019-01-31T01:31:27.623Z,22.40
2019-01-31T01:34:37.142Z,23.47
2019-01-31T01:37:25.368Z,23.50
2019-01-31T01:40:30.545Z,23.90
2019-01-31T01:43:25.782Z,23.00
2019-01-31T01:46:14.109Z,24.30
2019-01-31T01:49:13.777Z,25.37
2019-01-31T01:51:59.436Z,24.30
2019-01-31T01:54:51.090Z,24.20
2019-01-31T01:57:50.502Z,25.30
2019-01-31T02:00:36.467Z,24.47
2019-01-31T02:03:31.644Z,25.30
2019-01-31T02:06:26.351Z,24.93
2019-01-31T02:09:11.559Z,25.10
2019-01-31T02:12:17.855Z,22.93
2019-01-31T02:15:06.283Z,23.17
2019-01-31T02:18:06.770Z,24.27
2019-01-31T02:21:02.009Z,22.90
2019-01-31T02:23:41.406Z,24.30
2019-01-31T02:26:39.595Z,23.03
2019-01-31T02:29:31.312Z,21.80
2019-01-31T02:32:11.285Z,21.57
2019-01-31T02:34:50.854Z,21.23
2019-01-31T02:37:27.452Z,22.70
2019-01-31T02:40:19.679Z,24.17
2019-01-31T02:42:56.814Z,21.87
2019-01-31T02:45:39.803Z,22.30
2019-01-31T02:48:31.462Z,22.20
2019-01-31T02:51:14.257Z,21.33
2019-01-31T02:54:13.699Z,21.60
2019-01-31T02:57:04.126Z,21.83
2019-01-31T03:00:11.883Z,20.43
2019-01-31T03:02:51.532Z,21.73
2019-01-31T03:05:38.132Z,20.63
2019-01-31T03:08:14.777Z,23.03
2019-01-31T03:10:51.210Z,22.43
2019-01-31T03:13:36.464Z,21.20
2019-01-31T03:16:39.306Z,20.27
2019-01-31T03:19:28.318Z,20.40
2019-01-31T03:22:20.094Z,20.87
2019-01-31T03:24:59.352Z,19.67
2019-01-31T03:27:51.248Z,19.47
2019-01-31T03:30:30.403Z,19.97
2019-01-31T03:33:23.031Z,19.70
2019-01-31T03:35:59.718Z,21.73
2019-01-31T03:38:33.715Z,19.73
2019-01-31T03:41:36.894Z,21.17
2019-01-31T03:44:16.294Z,22.07
2019-01-31T03:46:58.562Z,19.37
2019-01-31T03:49:47.339Z,20.10
2019-01-31T03:52:30.154Z,19.13
2019-01-31T03:55:20.214Z,19.97
2019-01-31T03:58:23.856Z,20.30
2019-01-31T04:01:09.701Z,20.05
2019-01-31T04:03:49.154Z,21.70
2019-01-31T04:06:22.170Z,19.73
2019-01-31T04:08:51.613Z,19.10
2019-01-31T04:11:20.986Z,19.60
2019-01-31T04:13:50.382Z,20.20
2019-01-31T04:16:19.776Z,19.17
2019-01-31T04:18:49.123Z,20.53
2019-01-31T04:21:18.509Z,19.87
2019-01-31T04:23:47.873Z,20.50
2019-01-31T04:26:17.244Z,19.10
2019-01-31T04:28:47.257Z,18.10
2019-01-31T04:31:16.640Z,20.93
2019-01-31T04:33:45.997Z,18.57
2019-01-31T04:36:15.381Z,18.00
2019-01-31T04:38:44.750Z,16.93
2019-01-31T04:41:14.113Z,16.67
2019-01-31T04:43:43.488Z,18.83
2019-01-31T04:46:12.861Z,17.77
2019-01-31T04:48:42.586Z,18.17
2019-01-31T04:51:12.239Z,19.20
2019-01-31T04:53:41.947Z,17.77
2019-01-31T04:56:11.309Z,19.25
2019-01-31T04:58:40.693Z,20.80
2019-01-31T05:01:10.087Z,17.47
2019-01-31T05:03:39.456Z,18.90
2019-01-31T05:06:08.875Z,17.83
2019-01-31T05:08:38.237Z,18.27
2019-01-31T05:11:07.623Z,19.50
2019-01-31T05:13:37.309Z,17.87
2019-01-31T05:16:06.759Z,17.43
2019-01-31T05:18:36.138Z,18.27
2019-01-31T05:21:05.601Z,17.70
2019-01-31T05:23:34.971Z,17.00
2019-01-31T05:26:04.416Z,16.77
2019-01-31T05:28:33.799Z,19.10
2019-01-31T05:31:03.183Z,17.90
2019-01-31T05:33:32.622Z,16.90
2019-01-31T05:36:02.574Z,17.13
2019-01-31T05:38:31.943Z,16.43
2019-01-31T05:41:01.319Z,17.13
2019-01-31T05:43:30.699Z,17.77
2019-01-31T05:46:00.080Z,16.97
2019-01-31T05:48:29.448Z,17.33
2019-01-31T05:50:58.829Z,16.50
2019-01-31T05:53:28.198Z,17.53
2019-01-31T05:55:57.919Z,16.47
2019-01-31T05:58:27.858Z,17.30
2019-01-31T06:00:57.225Z,17.23
2019-01-31T06:03:26.935Z,17.40
2019-01-31T06:05:56.345Z,18.10
2019-01-31T06:08:26.036Z,18.83
2019-01-31T06:11:06.881Z,18.43
2019-01-31T06:13:26.512Z,17.03
2019-01-31T06:15:55.888Z,16.47
2019-01-31T06:18:25.269Z,17.47
2019-01-31T06:20:55.145Z,17.80
2019-01-31T06:23:24.517Z,16.17
2019-01-31T06:25:53.900Z,17.53
2019-01-31T06:28:23.270Z,18.83
2019-01-31T06:30:52.654Z,18.40
2019-01-31T06:33:22.320Z,17.77
2019-01-31T06:35:51.709Z,17.33
2019-01-31T06:38:21.074Z,16.90
2019-01-31T06:40:50.460Z,17.53
2019-01-31T06:43:20.486Z,18.47
2019-01-31T06:45:49.872Z,19.33
2019-01-31T06:48:19.269Z,17.07
2019-01-31T06:50:48.681Z,17.70
2019-01-31T06:53:18.053Z,17.43
2019-01-31T06:55:47.429Z,15.93
2019-01-31T06:58:17.010Z,17.47
2019-01-31T07:00:46.385Z,17.10
2019-01-31T07:03:16.079Z,16.83
2019-01-31T07:05:45.730Z,17.80
2019-01-31T07:08:15.097Z,19.93
2019-01-31T07:10:44.478Z,17.70
2019-01-31T07:13:13.864Z,17.03
2019-01-31T07:15:43.240Z,17.92
2019-01-31T07:18:12.614Z,17.70
2019-01-31T07:20:42.005Z,18.00
2019-01-31T07:23:11.389Z,17.23
2019-01-31T07:25:40.760Z,20.37
2019-01-31T07:28:10.360Z,17.73
2019-01-31T07:30:39.733Z,16.87
2019-01-31T07:33:09.106Z,18.20
2019-01-31T07:35:38.488Z,16.87
2019-01-31T07:38:07.857Z,16.60
2019-01-31T07:40:37.227Z,17.27
2019-01-31T07:43:06.657Z,18.70
2019-01-31T07:45:36.076Z,17.70
2019-01-31T07:48:05.580Z,18.53
2019-01-31T07:50:35.500Z,17.27
2019-01-31T07:53:04.948Z,17.83
2019-01-31T07:55:34.334Z,18.70
2019-01-31T07:58:03.722Z,17.40
2019-01-31T08:00:33.504Z,17.00
2019-01-31T08:03:02.875Z,20.60
2019-01-31T08:05:32.329Z,17.53
2019-01-31T08:08:01.699Z,17.43
2019-01-31T08:10:38.095Z,19.50
2019-01-31T08:13:08.067Z,20.23
2019-01-31T08:15:37.433Z,18.93
2019-01-31T08:18:06.815Z,18.37
2019-01-31T08:20:36.433Z,17.53
2019-01-31T08:23:06.535Z,19.47
2019-01-31T08:25:35.921Z,20.40
2019-01-31T08:28:06.725Z,21.67
2019-01-31T08:30:42.693Z,18.37
2019-01-31T08:33:12.297Z,17.30
2019-01-31T08:35:42.219Z,18.73
2019-01-31T08:38:11.591Z,19.33
2019-01-31T08:40:40.965Z,19.80
2019-01-31T08:43:10.343Z,18.40
2019-01-31T08:45:39.723Z,18.83
2019-01-31T08:48:09.174Z,18.73
2019-01-31T08:50:38.732Z,20.83
2019-01-31T08:53:08.351Z,19.70
2019-01-31T08:55:37.753Z,19.40
2019-01-31T08:58:07.414Z,17.97
2019-01-31T09:00:36.764Z,17.30
2019-01-31T09:03:06.235Z,17.30
2019-01-31T09:05:35.625Z,17.17
2019-01-31T09:08:05.259Z,18.00
2019-01-31T09:10:40.415Z,18.43
2019-01-31T09:13:11.606Z,18.70
2019-01-31T09:15:41.042Z,18.63
2019-01-31T09:18:10.411Z,18.07
2019-01-31T09:20:53.192Z,17.13
2019-01-31T09:23:32.849Z,17.33
2019-01-31T09:26:12.019Z,16.17
2019-01-31T09:29:20.848Z,17.10
2019-01-31T09:32:20.823Z,16.35
2019-01-31T09:35:15.701Z,19.73
2019-01-31T09:38:13.513Z,16.23
2019-01-31T09:40:59.213Z,17.27
2019-01-31T09:43:45.354Z,18.40
2019-01-31T09:46:22.200Z,16.73
2019-01-31T09:49:17.073Z,17.10
2019-01-31T09:52:09.118Z,15.83
2019-01-31T09:55:04.155Z,16.77
2019-01-31T09:57:38.140Z,16.07
2019-01-31T10:00:27.928Z,16.12
2019-01-31T10:03:22.830Z,16.30
2019-01-31T10:06:11.960Z,15.73
2019-01-31T10:08:57.983Z,17.20
2019-01-31T10:11:49.619Z,16.93
2019-01-31T10:14:41.100Z,16.40
2019-01-31T10:17:49.804Z,16.17
2019-01-31T10:20:46.984Z,16.47
2019-01-31T10:23:45.118Z,16.03
2019-01-31T10:26:33.976Z,16.43
2019-01-31T10:29:19.626Z,15.90
2019-01-31T10:32:09.486Z,15.73
2019-01-31T10:34:46.405Z,17.93
2019-01-31T10:37:34.788Z,15.70
2019-01-31T10:40:32.949Z,16.57
2019-01-31T10:43:09.643Z,15.80
2019-01-31T10:45:55.050Z,18.60
2019-01-31T10:48:56.195Z,17.13
2019-01-31T10:51:49.374Z,17.23
2019-01-31T10:54:31.976Z,14.67
2019-01-31T10:57:45.604Z,19.33
2019-01-31T11:00:22.492Z,15.33
2019-01-31T11:03:14.530Z,15.77
2019-01-31T11:06:15.477Z,15.93
2019-01-31T11:09:09.144Z,16.43
2019-01-31T11:12:01.060Z,16.03
2019-01-31T11:14:52.788Z,16.63
2019-01-31T11:17:53.689Z,16.50
2019-01-31T11:20:30.506Z,15.53
2019-01-31T11:23:07.648Z,15.20
2019-01-31T11:26:12.954Z,15.50
2019-01-31T11:28:52.791Z,14.53
2019-01-31T11:31:53.742Z,13.63
2019-01-31T11:34:36.359Z,15.97
2019-01-31T11:37:23.211Z,16.60
2019-01-31T11:40:22.863Z,19.07
2019-01-31T11:43:11.885Z,13.63
2019-01-31T11:46:20.781Z,13.58
2019-01-31T11:48:58.040Z,14.87
2019-01-31T11:51:43.630Z,14.77
2019-01-31T11:54:41.808Z,13.70
2019-01-31T11:57:15.797Z,12.53
2019-01-31T11:59:45.163Z,12.50
2019-01-31T12:02:14.617Z,12.87
2019-01-31T12:04:43.995Z,12.47
2019-01-31T12:07:13.371Z,12.33
2019-01-31T12:09:43.115Z,10.90
2019-01-31T12:12:12.498Z,11.27
2019-01-31T12:14:44.607Z,10.47
2019-01-31T12:17:13.980Z,11.57
2019-01-31T12:19:43.417Z,8.97
2019-01-31T12:22:12.941Z,8.80
2019-01-31T12:24:42.306Z,9.30
2019-01-31T12:27:11.985Z,9.13
2019-01-31T12:29:41.730Z,10.30
2019-01-31T12:32:11.102Z,17.23
2019-01-31T12:34:43.131Z,10.03
2019-01-31T12:37:11.578Z,9.97
2019-01-31T12:39:40.972Z,8.50
2019-01-31T12:42:10.353Z,8.00
2019-01-31T12:44:39.737Z,9.87
2019-01-31T12:47:09.105Z,9.57
2019-01-31T12:49:38.480Z,10.97
2019-01-31T12:52:08.405Z,10.57
2019-01-31T12:54:37.766Z,9.43
2019-01-31T12:57:07.218Z,10.90
2019-01-31T12:59:38.167Z,11.47
2019-01-31T13:02:08.146Z,8.73
2019-01-31T13:04:37.523Z,11.13
2019-01-31T13:07:07.072Z,10.37
2019-01-31T13:09:36.448Z,9.20
2019-01-31T13:12:06.035Z,9.77
2019-01-31T13:14:35.951Z,8.77
2019-01-31T13:17:07.031Z,9.10
2019-01-31T13:19:36.426Z,9.83
2019-01-31T13:22:06.161Z,8.83
2019-01-31T13:24:35.509Z,8.43
2019-01-31T13:27:05.901Z,9.33
2019-01-31T13:29:35.306Z,8.70
2019-01-31T13:32:05.189Z,8.57
2019-01-31T13:34:34.557Z,9.60
2019-01-31T13:37:04.216Z,8.33
2019-01-31T13:39:33.599Z,8.87
2019-01-31T13:42:02.982Z,11.13
2019-01-31T13:44:32.355Z,9.63
2019-01-31T13:47:01.734Z,10.10
2019-01-31T13:49:31.103Z,11.80
2019-01-31T13:52:00.559Z,10.90
2019-01-31T13:54:29.928Z,8.90
2019-01-31T13:56:59.307Z,8.90
2019-01-31T13:59:28.901Z,9.93
2019-01-31T14:01:58.274Z,9.07
2019-01-31T14:04:27.641Z,10.23
2019-01-31T14:06:57.019Z,9.53
2019-01-31T14:09:26.396Z,10.77
2019-01-31T14:11:55.774Z,10.07
2019-01-31T14:14:25.154Z,10.33
2019-01-31T14:16:54.848Z,10.43
2019-01-31T14:19:24.207Z,9.63
2019-01-31T14:21:53.623Z,11.50
2019-01-31T14:24:22.999Z,12.27
2019-01-31T14:26:52.405Z,11.17
2019-01-31T14:29:21.786Z,10.93
2019-01-31T14:31:51.160Z,12.20
2019-01-31T14:34:20.564Z,12.53
2019-01-31T14:36:49.948Z,12.13
2019-01-31T14:39:19.321Z,11.53
2019-01-31T14:41:48.691Z,13.17
2019-01-31T14:44:20.667Z,10.87
2019-01-31T14:46:49.470Z,11.40
2019-01-31T14:49:18.828Z,9.87
2019-01-31T14:51:48.225Z,9.77
2019-01-31T14:54:17.602Z,11.23
2019-01-31T14:56:46.979Z,10.90
2019-01-31T14:59:16.369Z,10.90
2019-01-31T15:01:45.744Z,10.60
2019-01-31T15:04:15.121Z,11.47
2019-01-31T15:06:44.985Z,10.30
2019-01-31T15:09:14.356Z,10.57
2019-01-31T15:11:43.724Z,10.93
2019-01-31T15:14:13.104Z,10.63
2019-01-31T15:16:42.477Z,10.57
2019-01-31T15:19:11.967Z,11.07
2019-01-31T15:21:41.366Z,9.50
2019-01-31T15:24:10.734Z,10.37
2019-01-31T15:26:40.115Z,9.53
2019-01-31T15:29:10.122Z,10.07
2019-01-31T15:31:39.481Z,9.23
2019-01-31T15:34:08.848Z,8.90
2019-01-31T15:36:38.236Z,9.23
2019-01-31T15:39:08.714Z,8.73
2019-01-31T15:41:38.074Z,8.63
2019-01-31T15:44:07.520Z,9.30
2019-01-31T15:46:36.888Z,10.60
2019-01-31T15:49:06.287Z,10.30
2019-01-31T15:51:35.977Z,11.03
2019-01-31T15:54:06.766Z,11.10
2019-01-31T15:56:36.153Z,11.03
2019-01-31T15:59:05.992Z,11.73
2019-01-31T16:01:35.489Z,10.53
2019-01-31T16:04:05.244Z,11.57
2019-01-31T16:06:34.693Z,12.97
2019-01-31T16:09:07.508Z,12.50
2019-01-31T16:11:37.067Z,12.27
2019-01-31T16:14:06.861Z,11.70
2019-01-31T16:16:36.191Z,12.87
2019-01-31T16:19:05.759Z,10.70
2019-01-31T16:21:36.380Z,12.27
2019-01-31T16:24:05.913Z,12.00
2019-01-31T16:26:35.304Z,12.23
2019-01-31T16:29:04.941Z,12.97
2019-01-31T16:31:34.319Z,11.90
2019-01-31T16:34:03.773Z,11.97
2019-01-31T16:36:33.480Z,12.40
2019-01-31T16:39:02.824Z,13.00
2019-01-31T16:41:32.204Z,13.03
2019-01-31T16:44:01.595Z,13.40
2019-01-31T16:46:31.032Z,12.10
2019-01-31T16:49:00.411Z,14.40
2019-01-31T16:51:29.802Z,14.63
2019-01-31T16:53:59.256Z,14.03
2019-01-31T16:56:28.633Z,12.43
2019-01-31T16:58:58.252Z,13.30
2019-01-31T17:01:27.629Z,14.83
2019-01-31T17:03:56.995Z,14.53
2019-01-31T17:06:26.405Z,13.95
2019-01-31T17:08:55.770Z,14.70
2019-01-31T17:11:25.312Z,16.23
2019-01-31T17:13:54.698Z,16.00
2019-01-31T17:16:24.325Z,15.40
2019-01-31T17:18:54.929Z,16.23
2019-01-31T17:21:24.444Z,17.90
2019-01-31T17:23:53.816Z,17.33
2019-01-31T17:26:23.187Z,19.10
2019-01-31T17:28:52.568Z,18.47
2019-01-31T17:31:21.934Z,20.10
2019-01-31T17:33:51.314Z,21.50
2019-01-31T17:36:20.701Z,21.17
2019-01-31T17:38:50.067Z,20.80
2019-01-31T17:41:19.442Z,20.43
2019-01-31T17:43:49.033Z,21.10
2019-01-31T17:46:18.412Z,23.40
2019-01-31T17:48:47.771Z,24.73
2019-01-31T17:51:17.175Z,26.27
2019-01-31T17:53:46.542Z,22.77
2019-01-31T17:56:15.913Z,24.60
2019-01-31T17:58:45.296Z,22.20
2019-01-31T18:01:14.711Z,26.10
2019-01-31T18:03:44.038Z,28.13
2019-01-31T18:06:13.868Z,24.73
2019-01-31T18:08:43.233Z,25.80
2019-01-31T18:11:12.952Z,26.13
2019-01-31T18:13:42.330Z,27.20
2019-01-31T18:16:11.701Z,25.90
2019-01-31T18:18:41.071Z,25.77
2019-01-31T18:21:12.951Z,26.07
2019-01-31T18:23:42.624Z,26.80
2019-01-31T18:26:12.502Z,25.73
2019-01-31T18:28:41.850Z,26.37
2019-01-31T18:31:11.220Z,26.60
2019-01-31T18:33:40.592Z,27.60
2019-01-31T18:36:09.978Z,25.13
2019-01-31T18:38:39.650Z,27.23
2019-01-31T18:41:09.028Z,24.33
2019-01-31T18:43:38.423Z,24.57
2019-01-31T18:46:07.800Z,24.83
2019-01-31T18:48:37.163Z,24.90
2019-01-31T18:51:06.579Z,25.53
2019-01-31T18:53:35.947Z,28.47
2019-01-31T18:56:05.605Z,29.70
2019-01-31T18:58:34.981Z,27.87
2019-01-31T19:01:05.862Z,30.20
2019-01-31T19:03:35.327Z,30.97
2019-01-31T19:06:04.949Z,30.30
2019-01-31T19:08:34.326Z,31.63
2019-01-31T19:11:03.692Z,27.37
2019-01-31T19:13:33.149Z,28.23
2019-01-31T19:16:05.225Z,31.73
2019-01-31T19:18:33.607Z,26.57
2019-01-31T19:21:02.992Z,28.13
2019-01-31T19:23:32.381Z,29.27
2019-01-31T19:26:01.753Z,29.67
2019-01-31T19:28:31.431Z,28.23
2019-01-31T19:31:00.865Z,27.83
2019-01-31T19:33:30.241Z,27.17
2019-01-31T19:35:59.654Z,27.27
2019-01-31T19:38:29.030Z,27.40
2019-01-31T19:40:58.422Z,28.97
2019-01-31T19:43:27.785Z,27.97
2019-01-31T19:45:57.152Z,26.17
2019-01-31T19:48:26.536Z,28.70
2019-01-31T19:50:55.952Z,26.27
2019-01-31T19:53:25.323Z,27.20
2019-01-31T19:55:54.701Z,28.40
2019-01-31T19:58:24.473Z,29.33
2019-01-31T20:00:53.850Z,29.43
2019-01-31T20:03:23.485Z,29.30
2019-01-31T20:05:52.886Z,27.20
2019-01-31T20:08:22.253Z,28.70
2019-01-31T20:10:51.692Z,28.20
2019-01-31T20:13:21.088Z,28.63
2019-01-31T20:15:50.469Z,29.50
2019-01-31T20:18:19.832Z,28.57
2019-01-31T20:20:49.355Z,30.03
2019-01-31T20:23:18.725Z,28.23
2019-01-31T20:25:48.096Z,27.37
2019-01-31T20:28:17.511Z,30.73
2019-01-31T20:30:46.908Z,31.10
2019-01-31T20:33:16.376Z,29.53
2019-01-31T20:35:45.748Z,31.23
2019-01-31T20:38:15.115Z,29.10
2019-01-31T20:40:44.755Z,30.20
2019-01-31T20:43:14.196Z,32.67
2019-01-31T20:45:43.583Z,31.43
2019-01-31T20:48:13.219Z,30.60
2019-01-31T20:50:42.817Z,30.23
2019-01-31T20:53:12.259Z,28.53
2019-01-31T20:55:41.828Z,31.33
2019-01-31T20:58:11.548Z,30.63
2019-01-31T21:00:43.230Z,31.60
2019-01-31T21:03:12.771Z,30.03
2019-01-31T21:05:42.996Z,32.13
2019-01-31T21:08:12.623Z,29.40
2019-01-31T21:10:42.065Z,28.37
2019-01-31T21:13:11.808Z,31.50
2019-01-31T21:15:41.315Z,28.27
2019-01-31T21:18:11.029Z,32.93
2019-01-31T21:20:40.984Z,29.80
2019-01-31T21:23:10.904Z,34.20
2019-01-31T21:25:40.279Z,31.40
2019-01-31T21:28:09.711Z,31.23
2019-01-31T21:30:40.401Z,35.23
2019-01-31T21:33:10.945Z,34.03
2019-01-31T21:35:40.409Z,32.47
2019-01-31T21:38:09.865Z,33.93
2019-01-31T21:40:39.296Z,33.92
2019-01-31T21:43:08.820Z,33.60
2019-01-31T21:45:38.531Z,33.67
2019-01-31T21:48:08.319Z,32.53
2019-01-31T21:50:38.175Z,32.70
2019-01-31T21:53:08.162Z,35.67
2019-01-31T21:55:37.771Z,36.63
2019-01-31T21:58:07.499Z,33.03
2019-01-31T22:00:37.516Z,33.43
2019-01-31T22:03:07.802Z,35.80
2019-01-31T22:05:37.324Z,34.07
2019-01-31T22:08:06.980Z,34.97
2019-01-31T22:10:36.331Z,33.90
2019-01-31T22:13:06.135Z,32.43
2019-01-31T22:15:36.672Z,33.97
2019-01-31T22:18:06.645Z,33.20
2019-01-31T22:20:36.029Z,35.57
2019-01-31T22:23:05.742Z,34.40
2019-01-31T22:25:35.112Z,35.97
2019-01-31T22:28:05.536Z,34.67
2019-01-31T22:30:36.814Z,35.30
2019-01-31T22:33:07.020Z,33.03
2019-01-31T22:35:37.545Z,33.93
2019-01-31T22:38:06.983Z,34.20
2019-01-31T22:40:36.342Z,32.73
2019-01-31T22:43:06.152Z,34.60
2019-01-31T22:45:35.548Z,34.33
2019-01-31T22:48:06.455Z,33.43
2019-01-31T22:50:35.915Z,36.97
2019-01-31T22:53:05.341Z,34.93
2019-01-31T22:55:34.726Z,34.48
2019-01-31T22:58:04.537Z,35.63
2019-01-31T23:01:00.961Z,36.80
2019-01-31T23:03:30.393Z,37.00
2019-01-31T23:06:00.045Z,34.77
2019-01-31T23:08:29.417Z,35.27
2019-01-31T23:10:58.816Z,35.63
2019-01-31T23:13:28.181Z,37.03
2019-01-31T23:15:57.560Z,36.13
2019-01-31T23:18:26.999Z,33.23
2019-01-31T23:20:56.365Z,35.73
2019-01-31T23:23:25.739Z,36.97
2019-01-31T23:25:55.128Z,35.33
2019-01-31T23:28:24.498Z,35.40
2019-01-31T23:30:53.867Z,38.87
2019-01-31T23:33:23.278Z,35.17
2019-01-31T23:35:52.661Z,35.90
2019-01-31T23:38:22.046Z,36.73
2019-01-31T23:40:51.624Z,36.27
2019-01-31T23:43:20.989Z,34.17
2019-01-31T23:45:50.367Z,36.85
2019-01-31T23:48:19.763Z,35.90
2019-01-31T23:50:49.135Z,35.47
2019-01-31T23:53:18.502Z,32.80
2019-01-31T23:55:48.006Z,35.90
2019-01-31T23:58:17.706Z,35.90
